SBCZ/CZS METAR and TAF weather

Enter ICAO airport designator
Station Type Date Time Source
SBCZ METAR 2019/08/23 23:45 UTC NOAA

SBCZ 232345Z 33003KT CAVOK 24/22 Q1014


Station Type Date Time Source
SBCZ Decoded METAR 2019/08/23 23:45 UTC NOAA

Station name not available
Aug 23, 2019 - 07:45 PM EDT / 2019.08.23 2345 UTC
Wind: from the NNW (330 degrees) at 3 MPH (3 KT):0
Visibility: greater than 7 mile(s):0
Temperature: 75 F (24 C)
Dew Point: 71 F (22 C)
Relative Humidity: 88%
Pressure (altimeter): 29.94 in. Hg (1014 hPa)
ob: SBCZ 232345Z 33003KT CAVOK 24/22 Q1014
cycle: 0

Station Type Date Time Source
SBCZ TAF 2019/08/24 06:21 UTC NOAA

TAF SBCZ 240300Z 2406/2506 00000KT 4000 BR NSC TN22/2406Z TX33/2419Z PROB30 2406/2412 0500 FG
BECMG 2412/2414 18005KT 7000 NSW
BECMG 2415/2417 BKN030 FEW035TCU PROB40
TEMPO 2418/2423 4000 TSRA BKN020 FEW035CB
BECMG 2423/2501 00000KT
RMK PHI

Example: see airport list